x

Thomas Point, Md (tplm2) Weather Station

2:00am - Tue 22nd Jul 2014 All times are EDT. -4 hours from GMT.

  • Wind
    15mph, 16mph gusts
  • Sea Temp 79°f
  • Air Temp 75°f
  • Sea Pressure 1022mb
  • Thomas Point, Md
  • Thomas Point, Md

More Historic Weather Station data

Upgrade to MSW Pro to gain access to the past 30 days of data for over 8000 Wavebouys and Weather Stations around the globe.

Join Pro

Comparision Forecast

View Surf forecast
   
Tue 07/22 2:00am 15 16 mph 1022mb 79f 75f
1:00am 15 16 mph 1022.3mb 80f 75f
12:00am 9 10 mph 1022.5mb 79f 76f
Mon 07/21 11:00pm 13 15 mph 1022.3mb 79f 78f
10:00pm 11
mph
1022.2mb 79f 78f
9:00pm 10 13 mph 1021.6mb 80f 78f
8:00pm 8 9 mph 1021.4mb 81f 78f
7:00pm 6 7 mph 1021.8mb 80f 79f
6:00pm 2 3 mph 1021.8mb 80f 79f
5:00pm 6 7 mph 1021.9mb 81f 78f
4:00pm 3
mph
1022mb 80f 78f
3:00pm 2 3 mph 1022.3mb 79f 76f
2:00pm 2 3 mph 1022.6mb 79f 76f
1:00pm 2 3 mph 1022.9mb 79f 74f
12:00pm 5 6 mph 1023.3mb 79f 73f
11:00am 6 7 mph 1023mb 79f 73f
10:00am 3 6 mph 1023mb 79f 73f
9:00am 7 8 mph 1022.9mb 79f 71f
8:00am 7
mph
1022.5mb 79f 71f
7:00am 8 9 mph 1022.2mb 79f 71f
6:00am 8 9 mph 1021.7mb 79f 70f
5:00am 10 11 mph 1021.2mb 79f 70f
4:00am 8 10 mph 1020.9mb 79f 71f
3:00am 11 13 mph 1020.7mb 79f 71f
2:00am 11 13 mph 1020.9mb 79f 71f
1:00am 11 13 mph 1021.1mb 79f 72f
12:00am 11 13 mph 1020.9mb 79f 72f
Sun 07/20 11:00pm 10 11 mph 1020.8mb 79f 73f
10:00pm 11
mph
1020.3mb 79f 74f
9:00pm 9 10 mph 1019.9mb 79f 75f
8:00pm 9
mph
1019.8mb 79f 76f
7:00pm 8 10 mph 1019.7mb 80f 75f
6:00pm 11 13 mph 1019.2mb 80f 75f
5:00pm 11 14 mph 1019.2mb 80f 75f
4:00pm 10 11 mph 1019.3mb 80f 77f
3:00pm 9 10 mph 1019.3mb 80f 76f
2:00pm 8 9 mph 1019.8mb 79f 75f
1:00pm 9 10 mph 1020.3mb 79f 74f
12:00pm 10 11 mph 1020.4mb 79f 73f
11:00am 10 13 mph 1020.4mb 79f 72f
10:00am 9 10 mph 1020.5mb 79f 72f
9:00am 10 11 mph 1020.4mb 78f 71f
8:00am 9 11 mph 1020.3mb 78f 71f
7:00am 14 16 mph 1019.7mb 78f 71f
6:00am 10 13 mph 1019.4mb 79f 71f
5:00am 10 13 mph 1019mb 79f 71f
4:00am 9 10 mph 1018.6mb 79f 71f
3:00am 10 13 mph 1018.9mb 79f 72f
2:00am 10 13 mph 1019.8mb 79f 72f
1:00am 14 15 mph 1020.3mb 79f 72f
12:00am 14 15 mph 1020.7mb 79f 73f
Sat 07/19 11:00pm 11 14 mph 1020.9mb 79f 73f
10:00pm 13 14 mph 1021.2mb 79f 74f
9:00pm 7 9 mph 1021.1mb 79f 75f
8:00pm 11 13 mph 1021.2mb 80f 76f
7:00pm 9 10 mph 1021mb 79f 76f
6:00pm 8 10 mph 1021mb 79f 76f
5:00pm 8 10 mph 1021.5mb 79f 76f
4:00pm 11 13 mph 1021.5mb 79f 76f
3:00pm 15 17 mph 1021.9mb 79f 76f
2:00pm 10 13 mph 1022.2mb 79f 75f
1:00pm 9 10 mph 1022.5mb 79f 75f
12:00pm 7 8 mph 1022.9mb 79f 74f
11:00am 7 8 mph 1023.3mb 79f 74f
10:00am 7 8 mph 1023.3mb 79f 74f
9:00am 8 9 mph 1023.2mb 79f 74f
8:00am 5 6 mph 1023.4mb 79f 74f
7:00am 5 6 mph 1023.1mb 79f 74f
6:00am 5
mph
1023.1mb 79f 74f
5:00am 7 8 mph 1022.8mb 79f 75f
4:00am 9 10 mph 1022.8mb 79f 74f
3:00am 9 10 mph 1022.7mb 79f 75f
2:00am 9 11 mph 1023.2mb 79f 76f
1:00am 10 11 mph 1023.3mb 79f 76f
12:00am 14 15 mph 1023.3mb 79f 76f
Fri 07/18 11:00pm 15 17 mph 1023.2mb 80f 77f
10:00pm 8 9 mph 1023.5mb 80f 78f
9:00pm 8 9 mph 1023.3mb 80f 78f
8:00pm 7 8 mph 1023.2mb 80f 78f
7:00pm 7 8 mph 1023mb 80f 79f
6:00pm 6 8 mph 1022.9mb 81f 78f
5:00pm 7
mph
1023.1mb 80f 78f
4:00pm 7 8 mph 1023.3mb 80f 78f
3:00pm 5 6 mph 1023.5mb 81f 77f
2:00pm 5
mph
1023.9mb 81f 76f
1:00pm 2 5 mph 1024.1mb 80f 75f
12:00pm 5 6 mph 1024.4mb 80f 74f
11:00am 7 8 mph 1024.4mb 79f 74f
10:00am 8 9 mph 1024.3mb 79f 73f
9:00am 8 9 mph 1024.2mb 79f 73f
8:00am 6 7 mph 1024mb 79f 72f